createdAt,value
2023-05-09T00:02:32.057Z,66.18
2023-05-09T00:05:46.918Z,66.69
2023-05-09T00:08:55.751Z,66.62
2023-05-09T00:12:03.939Z,66.72
2023-05-09T00:15:12.731Z,66.89
2023-05-09T00:18:20.929Z,67.23
2023-05-09T00:21:35.903Z,67.17
2023-05-09T00:24:44.492Z,66.89
2023-05-09T00:27:58.904Z,66.73
2023-05-09T00:31:13.939Z,67.11
2023-05-09T00:34:22.620Z,67.43
2023-05-09T00:37:37.978Z,67.54
2023-05-09T00:40:46.557Z,67.58
2023-05-09T00:44:00.921Z,67.56
2023-05-09T00:47:09.576Z,67.74
2023-05-09T00:50:17.942Z,67.70
2023-05-09T00:53:32.894Z,68.15
2023-05-09T00:56:34.751Z,68.45
2023-05-09T00:59:56.935Z,68.59
2023-05-09T01:03:13.018Z,69.06
2023-05-09T01:06:30.498Z,69.10
2023-05-09T01:09:38.953Z,68.61
2023-05-09T01:13:46.911Z,68.93
2023-05-09T01:17:34.178Z,69.05
2023-05-09T01:21:05.890Z,69.13
2023-05-09T01:24:32.945Z,69.04
2023-05-09T01:28:00.003Z,69.34
2023-05-09T01:31:10.933Z,69.74
2023-05-09T01:34:29.926Z,69.75
2023-05-09T01:37:34.151Z,70.14
2023-05-09T01:40:49.906Z,70.53
2023-05-09T01:44:09.964Z,70.26
2023-05-09T01:47:25.931Z,70.36
2023-05-09T01:50:35.926Z,70.41
2023-05-09T01:53:53.930Z,70.66
2023-05-09T01:56:56.799Z,70.92
2023-05-09T02:00:12.938Z,71.26
2023-05-09T02:03:34.927Z,71.86
2023-05-09T02:06:43.940Z,72.09
2023-05-09T02:10:01.941Z,71.84
2023-05-09T02:13:10.994Z,71.11
2023-05-09T02:16:25.960Z,71.45
2023-05-09T02:19:41.897Z,71.42
2023-05-09T02:22:56.908Z,71.75
2023-05-09T02:26:12.946Z,71.66
2023-05-09T02:29:30.187Z,71.95
2023-05-09T02:32:46.935Z,71.75
2023-05-09T02:35:56.480Z,71.68
2023-05-09T02:39:10.938Z,71.78
2023-05-09T02:42:15.860Z,72.34
2023-05-09T02:45:30.911Z,72.18
2023-05-09T02:48:39.463Z,72.36
2023-05-09T02:51:53.912Z,72.26
2023-05-09T02:55:01.930Z,72.44
2023-05-09T02:58:16.952Z,72.54
2023-05-09T03:01:24.943Z,72.55
2023-05-09T03:04:46.905Z,73.00
2023-05-09T03:07:48.723Z,73.10
2023-05-09T03:11:03.897Z,73.01
2023-05-09T03:14:11.925Z,73.15
2023-05-09T03:17:20.458Z,73.36
2023-05-09T03:20:34.958Z,73.25
2023-05-09T03:23:43.509Z,73.31
2023-05-09T03:26:51.918Z,73.28
2023-05-09T03:30:06.932Z,73.29
2023-05-09T03:33:14.927Z,73.05
2023-05-09T03:36:29.917Z,73.43
2023-05-09T03:39:31.769Z,73.31
2023-05-09T03:42:46.908Z,73.21
2023-05-09T03:46:01.922Z,73.49
2023-05-09T03:49:03.759Z,73.62
2023-05-09T03:52:18.936Z,73.84
2023-05-09T03:55:27.504Z,73.97
2023-05-09T03:58:35.924Z,73.66
2023-05-09T04:01:57.956Z,74.28
2023-05-09T04:05:06.940Z,74.70
2023-05-09T04:08:21.938Z,74.91
2023-05-09T04:11:30.591Z,74.74
2023-05-09T04:14:48.779Z,75.35
2023-05-09T04:17:57.984Z,74.74
2023-05-09T04:21:06.534Z,74.55
2023-05-09T04:24:20.927Z,74.69
2023-05-09T04:27:29.685Z,75.20
2023-05-09T04:30:37.988Z,74.77
2023-05-09T04:33:52.951Z,74.20
2023-05-09T04:37:01.517Z,74.63
2023-05-09T04:40:10.001Z,74.40
2023-05-09T04:43:18.477Z,74.03
2023-05-09T04:46:32.966Z,73.46
2023-05-09T04:49:41.525Z,74.00
2023-05-09T04:52:55.939Z,73.72
2023-05-09T04:56:04.721Z,73.76
2023-05-09T04:59:19.970Z,73.81
2023-05-09T05:02:41.949Z,73.99
2023-05-09T05:05:56.925Z,73.85
2023-05-09T05:09:04.919Z,73.58
2023-05-09T05:12:13.469Z,73.60
2023-05-09T05:15:27.925Z,72.99
2023-05-09T05:18:35.932Z,72.72
2023-05-09T05:21:44.494Z,72.61
2023-05-09T05:24:53.201Z,72.49
2023-05-09T05:28:07.922Z,73.34
2023-05-09T05:31:09.856Z,72.33
2023-05-09T05:34:24.918Z,72.09
2023-05-09T05:37:33.923Z,71.83
2023-05-09T05:40:42.504Z,71.87
2023-05-09T05:43:56.964Z,70.93
2023-05-09T05:46:58.853Z,71.35
2023-05-09T05:50:14.937Z,71.00
2023-05-09T05:53:23.488Z,71.34
2023-05-09T05:56:37.970Z,70.02
2023-05-09T05:59:39.860Z,69.86
2023-05-09T06:03:02.008Z,70.69
2023-05-09T06:06:04.900Z,69.44
2023-05-09T06:09:19.922Z,68.68
2023-05-09T06:12:34.923Z,67.64
2023-05-09T06:15:49.923Z,67.08
2023-05-09T06:18:53.413Z,65.32
2023-05-09T06:22:10.921Z,64.68
2023-05-09T06:25:18.957Z,64.55
2023-05-09T06:28:27.529Z,63.91
2023-05-09T06:31:41.982Z,63.64
2023-05-09T06:34:49.952Z,62.82
2023-05-09T06:37:58.465Z,62.20
2023-05-09T06:41:06.940Z,61.95
2023-05-09T06:44:21.919Z,61.37
2023-05-09T06:47:30.541Z,60.24
2023-05-09T06:50:38.930Z,61.14
2023-05-09T06:53:47.477Z,60.87
2023-05-09T06:56:55.933Z,60.39
2023-05-09T07:00:11.942Z,59.42
2023-05-09T07:03:26.947Z,59.07
2023-05-09T07:06:41.956Z,58.68
2023-05-09T07:09:52.943Z,57.58
2023-05-09T07:13:15.958Z,57.02
2023-05-09T07:16:26.369Z,56.30
2023-05-09T07:19:41.289Z,55.94
2023-05-09T07:22:57.267Z,55.34
2023-05-09T07:26:05.929Z,54.92
2023-05-09T07:29:13.985Z,54.49
2023-05-09T07:32:28.981Z,54.48
2023-05-09T07:35:45.135Z,54.00
2023-05-09T07:38:59.914Z,52.85
2023-05-09T07:42:08.028Z,52.13
2023-05-09T07:45:23.938Z,51.55
2023-05-09T07:48:32.986Z,51.13
2023-05-09T07:51:41.520Z,49.52
2023-05-09T07:54:51.312Z,48.25
2023-05-09T07:58:05.934Z,48.06
2023-05-09T08:01:13.945Z,47.02
2023-05-09T08:04:29.289Z,47.79
2023-05-09T08:07:43.982Z,46.48
2023-05-09T08:10:46.154Z,45.97
2023-05-09T08:14:01.988Z,45.34
2023-05-09T08:17:16.993Z,46.30
2023-05-09T08:20:26.137Z,45.36
2023-05-09T08:23:34.816Z,44.85
2023-05-09T08:26:49.973Z,44.63
2023-05-09T08:29:58.807Z,44.21
2023-05-09T08:33:14.938Z,43.83
2023-05-09T08:36:29.978Z,43.61
2023-05-09T08:39:38.576Z,43.90
2023-05-09T08:42:46.952Z,42.88
2023-05-09T08:46:05.051Z,43.61
2023-05-09T08:49:20.972Z,42.36
2023-05-09T08:52:39.014Z,42.90
2023-05-09T08:55:53.972Z,42.38
2023-05-09T08:59:11.010Z,40.93
2023-05-09T09:02:20.950Z,41.56
2023-05-09T09:05:41.262Z,41.64
2023-05-09T09:08:59.011Z,41.31
2023-05-09T09:12:09.421Z,40.48
2023-05-09T09:15:21.959Z,39.32
2023-05-09T09:18:41.963Z,39.06
2023-05-09T09:21:59.951Z,40.59
2023-05-09T09:25:09.037Z,39.78
2023-05-09T09:28:17.852Z,40.11
2023-05-09T09:31:37.980Z,39.49
2023-05-09T09:34:48.401Z,39.14
2023-05-09T09:37:59.735Z,39.49
2023-05-09T09:41:14.950Z,37.64
2023-05-09T09:44:23.607Z,37.08
2023-05-09T09:47:39.047Z,36.58
2023-05-09T09:50:41.011Z,37.89
2023-05-09T09:53:55.943Z,38.38
2023-05-09T09:56:57.750Z,39.32
2023-05-09T10:00:15.107Z,41.60
2023-05-09T10:03:41.487Z,41.20
2023-05-09T10:07:01.955Z,40.56
2023-05-09T10:10:12.277Z,40.03
2023-05-09T10:13:27.004Z,36.91
2023-05-09T10:16:42.756Z,37.48
2023-05-09T10:20:01.012Z,37.89
2023-05-09T10:23:10.254Z,38.30
2023-05-09T10:26:30.962Z,39.96
2023-05-09T10:29:58.128Z,39.54
2023-05-09T10:33:08.172Z,38.70
2023-05-09T10:36:27.991Z,39.17
2023-05-09T10:39:43.956Z,39.05
2023-05-09T10:42:52.656Z,39.34
2023-05-09T10:46:01.975Z,39.97
2023-05-09T10:49:10.892Z,37.15
2023-05-09T10:52:18.961Z,38.28
2023-05-09T10:55:55.003Z,38.64
2023-05-09T10:59:15.374Z,39.64
2023-05-09T11:02:30.592Z,38.69
2023-05-09T11:05:45.981Z,40.91
2023-05-09T11:08:54.552Z,39.35
2023-05-09T11:12:12.009Z,38.69
2023-05-09T11:15:26.974Z,38.96
2023-05-09T11:18:36.027Z,39.73
2023-05-09T11:22:01.181Z,39.66
2023-05-09T11:25:15.305Z,37.86
2023-05-09T11:28:38.990Z,36.87
2023-05-09T11:32:07.383Z,36.56
2023-05-09T11:35:27.053Z,36.59
2023-05-09T11:38:50.316Z,39.73
2023-05-09T11:41:58.727Z,40.19
2023-05-09T11:45:15.204Z,40.54
2023-05-09T11:48:21.873Z,40.41
2023-05-09T11:51:36.968Z,40.42
2023-05-09T11:54:39.648Z,39.58
2023-05-09T11:57:57.062Z,39.35
2023-05-09T12:01:19.991Z,39.26
2023-05-09T12:04:39.249Z,37.67
2023-05-09T12:07:48.269Z,39.57
2023-05-09T12:10:57.013Z,39.25
2023-05-09T12:14:05.559Z,41.39
2023-05-09T12:17:19.972Z,39.42
2023-05-09T12:20:35.054Z,38.54
2023-05-09T12:23:43.976Z,37.17
2023-05-09T12:27:01.025Z,36.18
2023-05-09T12:30:11.218Z,37.36
2023-05-09T12:33:40.031Z,39.19
2023-05-09T12:36:45.036Z,40.93
2023-05-09T12:40:19.069Z,40.67
2023-05-09T12:43:30.976Z,39.93
2023-05-09T12:46:40.062Z,38.50
2023-05-09T12:49:51.642Z,40.67
2023-05-09T12:53:03.360Z,42.66
2023-05-09T12:56:21.128Z,41.87
2023-05-09T12:59:32.652Z,42.31
2023-05-09T13:02:44.055Z,40.31
2023-05-09T13:06:07.977Z,38.93
2023-05-09T13:09:17.612Z,38.93
2023-05-09T13:12:31.995Z,38.96
2023-05-09T13:15:46.988Z,39.85
2023-05-09T13:19:02.000Z,40.76
2023-05-09T13:22:17.011Z,39.21
2023-05-09T13:25:18.898Z,40.97
2023-05-09T13:28:33.988Z,40.07
2023-05-09T13:31:48.991Z,39.18
2023-05-09T13:35:03.995Z,38.15
2023-05-09T13:38:12.560Z,41.15
2023-05-09T13:41:26.983Z,41.57
2023-05-09T13:44:35.003Z,42.46
2023-05-09T13:47:50.027Z,42.50
2023-05-09T13:50:58.010Z,42.15
2023-05-09T13:54:06.852Z,42.31
2023-05-09T13:57:15.005Z,42.04
2023-05-09T14:00:23.837Z,41.64
2023-05-09T14:03:46.071Z,41.97
2023-05-09T14:07:02.083Z,43.04
2023-05-09T14:13:22.191Z,41.99
2023-05-09T14:16:24.241Z,40.05
2023-05-09T14:19:38.986Z,39.88
2023-05-09T14:22:54.053Z,41.29
2023-05-09T14:26:02.943Z,42.90
2023-05-09T14:29:12.064Z,44.07
2023-05-09T14:32:27.026Z,44.73
2023-05-09T14:35:35.822Z,43.91
2023-05-09T14:38:45.006Z,44.10
2023-05-09T14:41:59.999Z,44.93
2023-05-09T14:45:01.899Z,43.58
2023-05-09T14:48:17.061Z,43.74
2023-05-09T14:51:31.997Z,43.26
2023-05-09T14:54:47.016Z,42.59
2023-05-09T14:58:02.022Z,43.08
2023-05-09T15:01:11.054Z,42.52
2023-05-09T15:04:26.364Z,43.22
2023-05-09T15:07:41.997Z,42.50
2023-05-09T15:10:57.011Z,41.97
2023-05-09T15:14:05.006Z,42.37
2023-05-09T15:17:13.695Z,43.29
2023-05-09T15:20:27.991Z,43.53
2023-05-09T15:23:36.696Z,42.72
2023-05-09T15:26:50.986Z,42.16
2023-05-09T15:30:00.063Z,43.23
2023-05-09T15:33:15.006Z,43.72
2023-05-09T15:36:30.139Z,44.94
2023-05-09T15:39:46.022Z,43.58
2023-05-09T15:43:01.085Z,43.68
2023-05-09T15:46:09.633Z,43.99
2023-05-09T15:49:18.023Z,44.61
2023-05-09T15:52:33.034Z,45.50
2023-05-09T15:55:41.118Z,44.96
2023-05-09T15:58:56.012Z,45.06
2023-05-09T16:02:04.163Z,43.87
2023-05-09T16:05:26.055Z,44.51
2023-05-09T16:08:34.619Z,44.58
2023-05-09T16:11:49.024Z,45.39
2023-05-09T16:14:57.711Z,45.60
2023-05-09T16:18:06.029Z,45.75
2023-05-09T16:21:14.641Z,46.03
2023-05-09T16:24:29.070Z,45.49
2023-05-09T16:27:45.051Z,46.05
2023-05-09T16:31:00.107Z,46.74
2023-05-09T16:34:08.091Z,46.32
2023-05-09T16:37:16.756Z,46.35
2023-05-09T16:40:25.387Z,45.85
2023-05-09T16:43:33.623Z,46.60
2023-05-09T16:46:48.030Z,46.88
2023-05-09T16:49:50.322Z,46.42
2023-05-09T16:53:05.049Z,46.65
2023-05-09T16:56:13.037Z,46.68
2023-05-09T16:59:21.609Z,46.55
2023-05-09T17:02:30.073Z,46.39
2023-05-09T17:05:45.293Z,47.03
2023-05-09T17:09:00.034Z,46.38
2023-05-09T17:12:08.093Z,46.26
2023-05-09T17:15:16.975Z,46.94
2023-05-09T17:18:37.025Z,46.93
2023-05-09T17:21:53.029Z,47.18
2023-05-09T17:25:08.045Z,47.96
2023-05-09T17:28:16.541Z,48.03
2023-05-09T17:31:31.024Z,48.50
2023-05-09T17:34:46.055Z,49.02
2023-05-09T17:38:01.028Z,48.06
2023-05-09T17:41:02.968Z,48.60
2023-05-09T17:44:19.024Z,48.21
2023-05-09T17:47:27.117Z,49.31
2023-05-09T17:50:35.615Z,49.04
2023-05-09T17:53:50.036Z,49.74
2023-05-09T17:57:02.036Z,49.27
2023-05-09T18:00:18.137Z,50.10
2023-05-09T18:03:36.175Z,50.38
2023-05-09T18:06:56.048Z,50.50
2023-05-09T18:10:12.022Z,51.50
2023-05-09T18:13:20.082Z,51.19
2023-05-09T18:16:36.123Z,51.73
2023-05-09T18:19:38.202Z,51.80
2023-05-09T18:22:54.051Z,52.15
2023-05-09T18:26:02.574Z,52.57
2023-05-09T18:29:11.046Z,52.12
2023-05-09T18:32:26.177Z,52.38
2023-05-09T18:35:41.080Z,53.24
2023-05-09T18:38:43.072Z,52.80
2023-05-09T18:41:58.045Z,52.82
2023-05-09T18:45:06.071Z,53.19
2023-05-09T18:48:17.494Z,53.50
2023-05-09T18:51:33.063Z,53.81
2023-05-09T18:54:41.888Z,53.83
2023-05-09T18:57:50.492Z,54.09
2023-05-09T19:01:06.075Z,54.48
2023-05-09T19:04:15.792Z,53.19
2023-05-09T19:07:32.017Z,53.76
2023-05-09T19:10:35.396Z,53.94
2023-05-09T19:13:51.120Z,54.43
2023-05-09T19:17:07.434Z,54.31
2023-05-09T19:20:17.365Z,55.02
2023-05-09T19:23:27.649Z,55.42
2023-05-09T19:26:37.812Z,55.46
2023-05-09T19:29:49.687Z,55.84
2023-05-09T19:33:06.596Z,55.59
2023-05-09T19:36:16.286Z,56.08
2023-05-09T19:39:26.479Z,56.19
2023-05-09T19:42:37.794Z,56.69
2023-05-09T19:45:47.627Z,57.25
2023-05-09T19:49:03.314Z,57.54
2023-05-09T19:52:19.457Z,57.97
2023-05-09T19:55:22.610Z,58.25
2023-05-09T19:58:38.086Z,58.84
2023-05-09T20:01:40.511Z,59.05
2023-05-09T20:05:02.058Z,59.83
2023-05-09T20:08:17.702Z,59.59
2023-05-09T20:11:20.265Z,60.10
2023-05-09T20:14:35.622Z,60.28
2023-05-09T20:17:44.692Z,60.71
2023-05-09T20:21:00.637Z,61.17
2023-05-09T20:24:15.766Z,61.62
2023-05-09T20:27:31.666Z,61.82
2023-05-09T20:30:40.586Z,62.00
2023-05-09T20:33:55.673Z,62.18
2023-05-09T20:37:11.581Z,62.28
2023-05-09T20:40:14.439Z,62.73
2023-05-09T20:43:29.566Z,62.90
2023-05-09T20:46:38.484Z,63.06
2023-05-09T20:49:46.944Z,63.75
2023-05-09T20:53:02.166Z,63.88
2023-05-09T20:56:11.016Z,64.25
2023-05-09T20:59:26.021Z,64.54
2023-05-09T21:02:35.084Z,65.20
2023-05-09T21:05:50.508Z,65.89
2023-05-09T21:09:05.029Z,66.38
2023-05-09T21:12:20.053Z,66.87
2023-05-09T21:15:28.542Z,67.13
2023-05-09T21:18:43.039Z,67.97
2023-05-09T21:21:51.607Z,68.39
2023-05-09T21:25:00.019Z,68.95
2023-05-09T21:28:15.047Z,68.83
2023-05-09T21:31:23.682Z,69.53
2023-05-09T21:34:38.028Z,69.58
2023-05-09T21:37:52.986Z,70.00
2023-05-09T21:41:08.035Z,69.98
2023-05-09T21:44:09.928Z,70.65
2023-05-09T21:47:25.159Z,70.73
2023-05-09T21:50:34.010Z,71.19
2023-05-09T21:53:42.627Z,71.37
2023-05-09T21:56:51.007Z,72.00
2023-05-09T21:59:59.650Z,72.19
2023-05-09T22:03:08.105Z,72.78
2023-05-09T22:06:30.037Z,72.95
2023-05-09T22:09:38.572Z,73.14
2023-05-09T22:12:47.056Z,73.73
2023-05-09T22:15:55.697Z,73.24
2023-05-09T22:19:04.045Z,73.14
2023-05-09T22:22:13.122Z,73.11
2023-05-09T22:25:21.027Z,73.29
2023-05-09T22:28:29.585Z,73.28
2023-05-09T22:31:44.071Z,73.19
2023-05-09T22:34:49.056Z,73.31
2023-05-09T22:38:04.039Z,73.39
2023-05-09T22:41:14.222Z,73.68
2023-05-09T22:44:22.086Z,74.06
2023-05-09T22:47:30.701Z,74.79
2023-05-09T22:50:39.088Z,75.27
2023-05-09T22:54:01.069Z,75.39
2023-05-09T22:57:09.828Z,75.60
2023-05-09T23:00:25.069Z,76.57
2023-05-09T23:03:33.110Z,76.53
2023-05-09T23:06:48.318Z,77.22
2023-05-09T23:09:57.060Z,77.40
2023-05-09T23:13:05.763Z,77.98
2023-05-09T23:16:21.113Z,78.34
2023-05-09T23:19:23.166Z,78.38
2023-05-09T23:22:38.088Z,78.89
2023-05-09T23:25:46.078Z,79.35
2023-05-09T23:29:01.130Z,79.70
2023-05-09T23:32:03.010Z,80.03
2023-05-09T23:35:18.056Z,80.59
2023-05-09T23:38:19.995Z,80.90
2023-05-09T23:41:35.080Z,81.35
2023-05-09T23:44:43.075Z,81.78
2023-05-09T23:47:58.103Z,82.03
2023-05-09T23:51:13.067Z,82.69
2023-05-09T23:54:14.946Z,82.94
2023-05-09T23:57:30.126Z,83.59
